createdAt,value
2023-04-27T00:00:23.122Z,65.72
2023-04-27T00:03:26.482Z,66.00
2023-04-27T00:06:29.524Z,66.47
2023-04-27T00:09:33.970Z,66.83
2023-04-27T00:12:36.633Z,67.18
2023-04-27T00:15:39.494Z,67.51
2023-04-27T00:18:42.253Z,67.23
2023-04-27T00:21:44.944Z,67.38
2023-04-27T00:24:48.969Z,67.26
2023-04-27T00:27:51.755Z,67.73
2023-04-27T00:30:55.154Z,67.42
2023-04-27T00:33:57.854Z,67.88
2023-04-27T00:37:00.544Z,67.68
2023-04-27T00:40:07.922Z,67.78
2023-04-27T00:43:10.662Z,68.13
2023-04-27T00:46:14.627Z,67.93
2023-04-27T00:49:17.648Z,67.75
2023-04-27T00:52:20.364Z,67.51
2023-04-27T00:55:24.687Z,67.15
2023-04-27T00:58:27.352Z,67.10
2023-04-27T01:01:31.386Z,67.11
2023-04-27T01:04:34.300Z,66.66
2023-04-27T01:07:38.792Z,66.72
2023-04-27T01:10:42.818Z,67.16
2023-04-27T01:13:46.226Z,66.94
2023-04-27T01:16:49.419Z,67.41
2023-04-27T01:19:55.224Z,67.79
2023-04-27T01:22:58.732Z,68.03
2023-04-27T01:26:02.747Z,68.26
2023-04-27T01:29:05.439Z,68.38
2023-04-27T01:32:14.604Z,68.43
2023-04-27T01:35:17.542Z,68.64
2023-04-27T01:38:20.265Z,68.82
2023-04-27T01:41:24.877Z,69.14
2023-04-27T01:44:27.583Z,69.04
2023-04-27T01:47:30.279Z,69.07
2023-04-27T01:50:33.120Z,68.92
2023-04-27T01:53:36.243Z,69.25
2023-04-27T01:56:40.309Z,69.00
2023-04-27T01:59:43.004Z,69.07
2023-04-27T02:02:46.098Z,69.29
2023-04-27T02:05:48.966Z,69.19
2023-04-27T02:08:51.626Z,69.63
2023-04-27T02:11:55.748Z,69.86
2023-04-27T02:14:58.485Z,70.25
2023-04-27T02:18:01.298Z,70.41
2023-04-27T02:21:09.963Z,70.44
2023-04-27T02:24:12.622Z,70.68
2023-04-27T02:27:16.732Z,70.51
2023-04-27T02:30:20.004Z,70.70
2023-04-27T02:33:23.748Z,70.67
2023-04-27T02:36:27.904Z,70.46
2023-04-27T02:39:30.673Z,70.55
2023-04-27T02:42:34.823Z,70.78
2023-04-27T02:45:39.051Z,70.58
2023-04-27T02:48:41.766Z,71.13
2023-04-27T02:51:44.618Z,71.33
2023-04-27T02:54:47.339Z,71.51
2023-04-27T02:57:52.414Z,71.86
2023-04-27T03:00:55.900Z,72.17
2023-04-27T03:03:59.632Z,72.34
2023-04-27T03:07:02.449Z,72.54
2023-04-27T03:10:06.428Z,72.85
2023-04-27T03:13:10.564Z,72.87
2023-04-27T03:16:13.484Z,72.96
2023-04-27T03:19:16.478Z,73.07
2023-04-27T03:22:19.314Z,72.97
2023-04-27T03:25:22.552Z,73.29
2023-04-27T03:28:26.765Z,73.30
2023-04-27T03:31:29.663Z,73.37
2023-04-27T03:34:32.535Z,73.36
2023-04-27T03:37:36.443Z,73.49
2023-04-27T03:40:39.124Z,73.49
2023-04-27T03:43:43.176Z,73.45
2023-04-27T03:46:45.982Z,73.26
2023-04-27T03:49:48.693Z,73.29
2023-04-27T03:52:51.366Z,73.04
2023-04-27T03:55:54.045Z,72.89
2023-04-27T03:58:58.135Z,72.86
2023-04-27T04:02:01.540Z,72.84
2023-04-27T04:05:04.615Z,72.80
2023-04-27T04:08:07.487Z,73.05
2023-04-27T04:11:12.807Z,73.18
2023-04-27T04:14:16.837Z,73.45
2023-04-27T04:17:19.463Z,73.37
2023-04-27T04:20:22.397Z,73.77
2023-04-27T04:23:25.247Z,73.80
2023-04-27T04:26:27.945Z,73.82
2023-04-27T04:29:32.780Z,73.83
2023-04-27T04:32:37.851Z,73.74
2023-04-27T04:35:41.503Z,73.68
2023-04-27T04:38:44.210Z,73.01
2023-04-27T04:41:47.041Z,72.80
2023-04-27T04:44:51.362Z,72.34
2023-04-27T04:47:55.515Z,72.09
2023-04-27T04:50:58.564Z,71.90
2023-04-27T04:54:02.142Z,71.67
2023-04-27T04:57:07.829Z,71.98
2023-04-27T05:00:13.717Z,72.07
2023-04-27T05:03:16.779Z,73.16
2023-04-27T05:06:20.089Z,74.17
2023-04-27T05:09:23.155Z,74.39
2023-04-27T05:12:25.891Z,74.98
2023-04-27T05:15:29.950Z,74.95
2023-04-27T05:18:32.576Z,75.43
2023-04-27T05:21:35.461Z,75.50
2023-04-27T05:24:38.549Z,75.26
2023-04-27T05:27:41.295Z,75.21
2023-04-27T05:30:45.402Z,75.27
2023-04-27T05:33:48.457Z,75.41
2023-04-27T05:36:51.339Z,75.43
2023-04-27T05:39:54.022Z,74.99
2023-04-27T05:42:56.776Z,74.30
2023-04-27T05:46:00.885Z,75.08
2023-04-27T05:49:03.665Z,74.39
2023-04-27T05:52:06.351Z,74.18
2023-04-27T05:55:09.351Z,73.45
2023-04-27T05:58:12.059Z,73.13
2023-04-27T06:01:16.324Z,72.83
2023-04-27T06:04:19.044Z,72.72
2023-04-27T06:07:22.014Z,72.70
2023-04-27T06:10:24.911Z,72.72
2023-04-27T06:13:27.572Z,72.54
2023-04-27T06:16:31.710Z,72.11
2023-04-27T06:19:34.439Z,71.53
2023-04-27T06:22:38.052Z,69.69
2023-04-27T06:25:41.111Z,68.18
2023-04-27T06:28:46.125Z,67.52
2023-04-27T06:31:50.356Z,66.27
2023-04-27T06:34:53.162Z,64.45
2023-04-27T06:37:58.836Z,62.39
2023-04-27T06:41:05.047Z,60.80
2023-04-27T06:44:07.703Z,58.69
2023-04-27T06:47:11.765Z,57.13
2023-04-27T06:50:17.462Z,56.08
2023-04-27T06:53:20.184Z,55.48
2023-04-27T06:56:22.879Z,54.83
2023-04-27T06:59:25.606Z,53.95
2023-04-27T07:02:29.782Z,52.58
2023-04-27T07:05:34.707Z,50.69
2023-04-27T07:08:37.776Z,49.11
2023-04-27T07:11:40.504Z,49.09
2023-04-27T07:14:43.199Z,48.70
2023-04-27T07:17:47.364Z,48.63
2023-04-27T07:20:50.110Z,49.27
2023-04-27T07:23:54.142Z,48.82
2023-04-27T07:26:59.424Z,49.62
2023-04-27T07:30:02.169Z,49.90
2023-04-27T07:33:07.236Z,49.86
2023-04-27T07:36:10.083Z,49.81
2023-04-27T07:39:13.133Z,48.99
2023-04-27T07:42:16.372Z,47.17
2023-04-27T07:45:19.079Z,46.89
2023-04-27T07:48:24.631Z,48.28
2023-04-27T07:51:28.720Z,47.78
2023-04-27T07:54:31.740Z,47.35
2023-04-27T07:57:34.525Z,47.21
2023-04-27T08:00:37.439Z,47.06
2023-04-27T08:03:43.689Z,46.35
2023-04-27T08:06:47.135Z,45.95
2023-04-27T08:09:52.378Z,45.42
2023-04-27T08:12:55.406Z,45.98
2023-04-27T08:15:59.382Z,45.44
2023-04-27T08:19:03.504Z,46.05
2023-04-27T08:22:06.200Z,46.55
2023-04-27T08:25:09.939Z,46.85
2023-04-27T08:28:12.688Z,47.24
2023-04-27T08:31:18.443Z,47.72
2023-04-27T08:34:22.454Z,46.98
2023-04-27T08:37:25.276Z,47.28
2023-04-27T08:40:28.198Z,47.02
2023-04-27T08:43:35.390Z,46.99
2023-04-27T08:46:38.744Z,46.56
2023-04-27T08:49:42.933Z,46.20
2023-04-27T08:52:45.799Z,46.23
2023-04-27T08:55:48.565Z,46.62
2023-04-27T08:58:53.489Z,46.55
2023-04-27T09:01:56.438Z,46.80
2023-04-27T09:05:04.066Z,46.78
2023-04-27T09:08:10.878Z,46.60
2023-04-27T09:11:14.151Z,46.09
2023-04-27T09:14:19.658Z,46.45
2023-04-27T09:17:25.965Z,46.37
2023-04-27T09:20:30.197Z,45.67
2023-04-27T09:23:34.309Z,46.08
2023-04-27T09:26:38.635Z,45.28
2023-04-27T09:29:41.457Z,45.12
2023-04-27T09:32:54.321Z,45.31
2023-04-27T09:36:01.057Z,44.62
2023-04-27T09:39:05.367Z,44.33
2023-04-27T09:42:08.496Z,43.63
2023-04-27T09:45:12.887Z,42.55
2023-04-27T09:48:15.578Z,42.78
2023-04-27T09:51:19.600Z,42.03
2023-04-27T09:54:25.199Z,41.99
2023-04-27T09:57:37.615Z,42.10
2023-04-27T10:00:56.520Z,42.21
2023-04-27T10:04:14.431Z,40.62
2023-04-27T10:07:19.064Z,41.33
2023-04-27T10:10:21.831Z,40.66
2023-04-27T10:13:26.219Z,40.68
2023-04-27T10:16:29.031Z,41.12
2023-04-27T10:19:31.863Z,40.62
2023-04-27T10:22:44.271Z,40.04
2023-04-27T10:25:47.794Z,40.20
2023-04-27T10:28:58.554Z,40.56
2023-04-27T10:32:07.749Z,40.65
2023-04-27T10:35:10.736Z,40.90
2023-04-27T10:38:18.999Z,39.72
2023-04-27T10:41:23.520Z,39.54
2023-04-27T10:44:28.704Z,38.61
2023-04-27T10:47:39.263Z,38.60
2023-04-27T10:50:42.592Z,38.98
2023-04-27T10:53:47.951Z,37.51
2023-04-27T10:56:50.774Z,37.89
2023-04-27T10:59:55.630Z,37.55
2023-04-27T11:03:11.376Z,37.08
2023-04-27T11:06:14.435Z,37.39
2023-04-27T11:09:28.195Z,37.58
2023-04-27T11:12:33.333Z,37.14
2023-04-27T11:15:44.524Z,37.00
2023-04-27T11:18:47.296Z,36.79
2023-04-27T11:21:50.872Z,36.19
2023-04-27T11:24:55.070Z,36.10
2023-04-27T11:27:57.771Z,35.60
2023-04-27T11:31:01.058Z,36.02
2023-04-27T11:34:04.190Z,35.62
2023-04-27T11:40:16.015Z,34.99
2023-04-27T11:43:19.043Z,34.84
2023-04-27T11:46:22.350Z,34.91
2023-04-27T11:49:26.913Z,34.93
2023-04-27T11:52:30.443Z,34.81
2023-04-27T11:55:41.812Z,34.56
2023-04-27T11:58:46.431Z,34.57
2023-04-27T12:01:49.543Z,33.45
2023-04-27T12:04:52.822Z,33.87
2023-04-27T12:07:55.871Z,34.02
2023-04-27T12:11:00.344Z,33.51
2023-04-27T12:14:04.029Z,33.41
2023-04-27T12:17:07.613Z,33.54
2023-04-27T12:20:11.665Z,33.78
2023-04-27T12:23:14.448Z,33.66
2023-04-27T12:26:18.620Z,32.98
2023-04-27T12:29:22.243Z,33.32
2023-04-27T12:32:24.923Z,33.30
2023-04-27T12:35:31.709Z,32.81
2023-04-27T12:38:34.496Z,32.87
2023-04-27T12:41:38.716Z,33.18
2023-04-27T12:44:42.373Z,32.21
2023-04-27T12:48:00.931Z,32.61
2023-04-27T12:51:04.439Z,32.22
2023-04-27T12:54:07.871Z,32.90
2023-04-27T12:57:12.211Z,32.76
2023-04-27T13:00:15.876Z,33.07
2023-04-27T13:03:18.885Z,32.92
2023-04-27T13:06:22.914Z,32.87
2023-04-27T13:09:28.989Z,32.67
2023-04-27T13:12:33.513Z,32.39
2023-04-27T13:15:36.572Z,32.03
2023-04-27T13:18:40.168Z,32.04
2023-04-27T13:21:42.942Z,32.34
2023-04-27T13:24:45.612Z,32.33
2023-04-27T13:27:50.292Z,32.24
2023-04-27T13:30:55.547Z,31.96
2023-04-27T13:33:58.651Z,32.00
2023-04-27T13:37:01.382Z,31.86
2023-04-27T13:40:05.309Z,31.03
2023-04-27T13:43:09.328Z,30.79
2023-04-27T13:46:13.693Z,30.42
2023-04-27T13:49:16.495Z,30.41
2023-04-27T13:52:19.310Z,30.85
2023-04-27T13:55:22.364Z,30.85
2023-04-27T13:58:28.057Z,30.72
2023-04-27T14:01:30.809Z,30.85
2023-04-27T14:04:33.837Z,30.84
2023-04-27T14:07:36.879Z,30.36
2023-04-27T14:10:39.976Z,30.43
2023-04-27T14:13:43.993Z,30.54
2023-04-27T14:16:46.938Z,31.11
2023-04-27T14:19:49.947Z,31.43
2023-04-27T14:22:52.906Z,31.54
2023-04-27T14:25:55.799Z,31.41
2023-04-27T14:29:00.057Z,31.32
2023-04-27T14:32:02.772Z,31.50
2023-04-27T14:35:07.060Z,31.58
2023-04-27T14:38:09.881Z,31.92
2023-04-27T14:41:12.573Z,31.86
2023-04-27T14:44:16.634Z,31.77
2023-04-27T14:47:19.802Z,31.74
2023-04-27T14:50:22.571Z,31.57
2023-04-27T14:53:25.481Z,31.25
2023-04-27T14:56:28.218Z,31.49
2023-04-27T14:59:34.118Z,30.99
2023-04-27T15:02:37.311Z,30.90
2023-04-27T15:05:40.294Z,31.24
2023-04-27T15:08:42.992Z,31.25
2023-04-27T15:11:45.803Z,30.96
2023-04-27T15:14:51.674Z,30.94
2023-04-27T15:17:54.431Z,31.26
2023-04-27T15:20:58.077Z,31.36
2023-04-27T15:24:00.796Z,31.58
2023-04-27T15:27:03.933Z,31.29
2023-04-27T15:30:09.392Z,30.35
2023-04-27T15:33:12.338Z,31.40
2023-04-27T15:36:15.977Z,31.50
2023-04-27T15:39:18.805Z,31.40
2023-04-27T15:42:21.743Z,31.56
2023-04-27T15:45:25.910Z,31.77
2023-04-27T15:48:28.748Z,31.26
2023-04-27T15:51:32.563Z,31.77
2023-04-27T15:54:36.009Z,31.66
2023-04-27T15:57:39.301Z,31.78
2023-04-27T16:00:44.796Z,31.71
2023-04-27T16:03:52.203Z,32.20
2023-04-27T16:06:55.708Z,32.18
2023-04-27T16:09:58.584Z,31.78
2023-04-27T16:13:01.320Z,31.84
2023-04-27T16:16:07.336Z,32.21
2023-04-27T16:19:10.673Z,32.04
2023-04-27T16:22:13.440Z,32.11
2023-04-27T16:25:16.816Z,32.43
2023-04-27T16:28:19.938Z,32.87
2023-04-27T16:31:24.509Z,33.13
2023-04-27T16:34:27.782Z,32.91
2023-04-27T16:37:30.620Z,33.60
2023-04-27T16:40:33.438Z,34.33
2023-04-27T16:43:36.350Z,33.89
2023-04-27T16:46:40.715Z,33.20
2023-04-27T16:49:44.310Z,32.52
2023-04-27T16:52:47.085Z,33.40
2023-04-27T16:55:49.816Z,33.03
2023-04-27T16:58:52.452Z,32.75
2023-04-27T17:01:56.563Z,32.67
2023-04-27T17:04:59.689Z,33.66
2023-04-27T17:08:05.076Z,33.62
2023-04-27T17:11:09.099Z,34.25
2023-04-27T17:14:11.869Z,35.34
2023-04-27T17:17:17.054Z,36.65
2023-04-27T17:20:19.958Z,36.68
2023-04-27T17:23:22.635Z,36.79
2023-04-27T17:26:25.330Z,37.19
2023-04-27T17:29:28.042Z,37.94
2023-04-27T17:32:32.487Z,38.92
2023-04-27T17:35:35.279Z,39.94
2023-04-27T17:38:38.300Z,40.09
2023-04-27T17:41:41.178Z,40.02
2023-04-27T17:44:43.942Z,40.64
2023-04-27T17:47:48.082Z,40.31
2023-04-27T17:50:50.952Z,40.81
2023-04-27T17:53:54.145Z,42.32
2023-04-27T17:56:56.934Z,43.49
2023-04-27T17:59:59.707Z,43.92
2023-04-27T18:03:04.077Z,44.15
2023-04-27T18:06:08.064Z,44.35
2023-04-27T18:09:11.219Z,45.05
2023-04-27T18:12:13.922Z,45.36
2023-04-27T18:15:16.605Z,45.19
2023-04-27T18:18:23.266Z,45.56
2023-04-27T18:21:28.374Z,46.02
2023-04-27T18:24:31.223Z,46.72
2023-04-27T18:27:33.924Z,48.32
2023-04-27T18:30:36.721Z,49.02
2023-04-27T18:33:40.750Z,49.56
2023-04-27T18:36:43.538Z,49.40
2023-04-27T18:39:46.192Z,49.59
2023-04-27T18:42:49.098Z,49.72
2023-04-27T18:45:52.098Z,50.91
2023-04-27T18:48:56.290Z,51.32
2023-04-27T18:51:59.066Z,51.77
2023-04-27T18:55:02.691Z,52.44
2023-04-27T18:58:05.433Z,52.75
2023-04-27T19:01:08.328Z,53.40
2023-04-27T19:04:13.037Z,54.06
2023-04-27T19:07:16.324Z,55.18
2023-04-27T19:10:19.062Z,55.54
2023-04-27T19:13:21.826Z,55.88
2023-04-27T19:16:24.637Z,57.54
2023-04-27T19:19:28.712Z,58.49
2023-04-27T19:22:34.296Z,58.64
2023-04-27T19:25:37.281Z,58.19
2023-04-27T19:28:40.176Z,58.06
2023-04-27T19:31:42.943Z,58.07
2023-04-27T19:34:47.354Z,57.59
2023-04-27T19:37:50.823Z,58.89
2023-04-27T19:40:53.706Z,58.73
2023-04-27T19:43:56.577Z,59.17
2023-04-27T19:46:59.406Z,59.41
2023-04-27T19:50:04.931Z,60.35
2023-04-27T19:53:07.622Z,61.38
2023-04-27T19:56:10.359Z,61.53
2023-04-27T19:59:13.053Z,62.32
2023-04-27T20:02:16.332Z,62.53
2023-04-27T20:05:20.778Z,62.77
2023-04-27T20:08:24.763Z,62.14
2023-04-27T20:11:27.633Z,61.76
2023-04-27T20:14:33.670Z,61.44
2023-04-27T20:17:36.446Z,61.02
2023-04-27T20:20:42.026Z,62.14
2023-04-27T20:23:44.884Z,63.30
2023-04-27T20:26:47.601Z,64.04
2023-04-27T20:29:50.272Z,64.77
2023-04-27T20:32:53.495Z,65.30
2023-04-27T20:36:03.521Z,66.06
2023-04-27T20:39:10.390Z,66.34
2023-04-27T20:42:13.541Z,66.18
2023-04-27T20:45:16.354Z,66.03
2023-04-27T20:48:19.336Z,66.96
2023-04-27T20:51:23.715Z,66.67
2023-04-27T20:54:26.450Z,66.69
2023-04-27T20:57:29.128Z,66.38
2023-04-27T21:00:32.001Z,65.87
2023-04-27T21:03:35.589Z,64.96
2023-04-27T21:06:41.190Z,64.19
2023-04-27T21:09:43.893Z,63.96
2023-04-27T21:12:46.625Z,63.79
2023-04-27T21:15:49.268Z,63.59
2023-04-27T21:18:51.903Z,63.94
2023-04-27T21:21:56.179Z,63.99
2023-04-27T21:24:58.876Z,64.62
2023-04-27T21:28:02.248Z,64.56
2023-04-27T21:31:05.038Z,64.19
2023-04-27T21:34:08.113Z,63.95
2023-04-27T21:37:12.205Z,65.08
2023-04-27T21:40:14.954Z,66.74
2023-04-27T21:43:17.723Z,68.88
2023-04-27T21:46:20.880Z,69.60
2023-04-27T21:49:23.630Z,69.60
2023-04-27T21:52:27.719Z,69.00
2023-04-27T21:55:30.426Z,68.77
2023-04-27T21:58:33.157Z,69.13
2023-04-27T22:01:35.942Z,69.23
2023-04-27T22:04:39.630Z,69.15
2023-04-27T22:07:47.657Z,69.32
2023-04-27T22:10:50.320Z,68.98
2023-04-27T22:13:53.207Z,68.35
2023-04-27T22:16:58.111Z,67.26
2023-04-27T22:20:01.229Z,66.80
2023-04-27T22:23:05.322Z,66.74
2023-04-27T22:26:08.979Z,67.17
2023-04-27T22:29:11.942Z,67.18
2023-04-27T22:32:15.390Z,67.08
2023-04-27T22:35:26.224Z,66.46
2023-04-27T22:38:31.102Z,66.33
2023-04-27T22:41:33.895Z,65.89
2023-04-27T22:44:36.616Z,65.64
2023-04-27T22:47:41.203Z,65.52
2023-04-27T22:50:44.022Z,65.72
2023-04-27T22:53:48.077Z,65.08
2023-04-27T22:56:50.913Z,65.20
2023-04-27T22:59:54.690Z,65.02
2023-04-27T23:02:57.744Z,64.99
2023-04-27T23:06:01.350Z,65.54
2023-04-27T23:09:05.549Z,65.53
2023-04-27T23:12:08.978Z,65.80
2023-04-27T23:15:12.562Z,65.91
2023-04-27T23:18:15.499Z,66.09
2023-04-27T23:21:18.320Z,66.05
2023-04-27T23:24:22.310Z,65.87
2023-04-27T23:27:25.183Z,65.82
2023-04-27T23:30:27.898Z,66.56
2023-04-27T23:33:30.594Z,67.13
2023-04-27T23:36:33.297Z,67.51
2023-04-27T23:39:37.333Z,67.27
2023-04-27T23:42:40.078Z,67.13
2023-04-27T23:45:42.743Z,67.34
2023-04-27T23:48:46.094Z,67.23
2023-04-27T23:51:50.022Z,67.60
2023-04-27T23:54:54.018Z,68.26
2023-04-27T23:57:56.814Z,68.10
